Terminal Aerodrome Forecast
Issued by NWS Glasgow, MT

Home | Current Version | Previous Version | Text Only | Print | Product List | Glossary On
Versions: 1 2 3 4 5 6 7 8 9 10 11 12 13 14 15 16 17 18 19 20 21 22 23 24 25 26 27
000
FTUS45 KGGW 311100
TAFGGW
TAF
KGGW 311120Z 3112/0112 09021KT 3SM BR OVC005
     FM311400 07024KT 1SM -SN BLSN OVC004
     FM311900 06026KT 4SM -SN BLSN OVC007
     FM010000 06014KT 2SM BR OVC001
     FM010800 VRB06KT 6SM BR OVC015=

USA.gov is the U.S. government's official web portal to all federal, state and local government web resources and services.